Air Resources Laboratory banner image
Air Resources Laboratory web site National Oceanic and Atmospheric Administration (NOAA)

al metar


KANB 182353Z AUTO 00000KT 10SM CLR 10/08 A3018 RMK AO2 SLP228 T01000078 10194
 20094 53007 $=
KAUO 182356Z AUTO 00000KT 10SM CLR 13/08 A3018 RMK AO2 SLP248 T01280083 10194
 20128 51005=
KBFM 182353Z 21004KT 10SM CLR 14/11 A3018 RMK AO2 SLP219 T01390106 10211 20128
 53004=
KBHM 182353Z 00000KT 10SM CLR 11/07 A3020 RMK AO2 SLP226 T01110067 10194 20106
 53005 $=
KDCU 182353Z AUTO 00000KT 10SM CLR 08/06 A3017 RMK AO2 SLP220 T00780061 10172
 20078 53003 $=
KDHN 182353Z 08004KT 10SM CLR 12/08 A3019 RMK AO2 SLP223 T01170078 10217 20117
 53001=
KEET 182353Z AUTO 00000KT 10SM CLR 11/08 A3018 RMK AO2 SLP219 T01060078 10194
 20106 53004=
KGAD 182356Z AUTO 00000KT 10SM CLR 08/08 A3018 RMK AO2 SLP229 T00830083 10183
 20083 53005=
KGZH 182353Z AUTO 00000KT 10SM CLR 12/09 A3017 RMK AO2 SLP217 T01220094 10222
 20122 53005=
KHSV 182353Z 09003KT 10SM FEW250 11/07 A3017 RMK AO2 SLP216 T01060072 10183
 20106 51002=
KLOR 182358Z AUTO 00000KT 10SM CLR 11/11 A3015 RMK AO2 SLP194 T01090105 10203
 20109 56003=
KMGM 182353Z 00000KT 10SM CLR 11/07 A3017 RMK AO2 SLP217 T01110072 10211 20111
 53002=
KMOB 182356Z 24005KT 10SM CLR 15/09 A3018 RMK AO2 SLP218 T01500094 10217 20139
 53008=
KMSL 182353Z AUTO 00000KT 10SM CLR 12/06 A3017 RMK AO2 SLP216 T01220061 10194
 20111 52003 $=
KMXF 182356Z AUTO 00000KT 10SM CLR 11/09 A3016 RMK AO2 SLP216 T01130089 10196
 20111 53001 $=
KOZR 182356Z AUTO 00000KT 10SM CLR 13/08 A3015 RMK AO2 SLP213 T01300083 10210
 20126 57002=
KSXS 182358Z AUTO 00000KT 10SM CLR 13/10 A3014 RMK AO2 SLP209 T01340096 10203
 20133 55003=
KTCL 182353Z 00000KT 10SM CLR 11/08 A3017 RMK AO2 SLP218 T01110078 10206 20111
 53004=
KTOI 182353Z AUTO 00000KT 10SM CLR 12/09 A3016 RMK AO2 SLP215 T01170094 10211
 20117 55000=